sensor_id;sensor_type;location;lat;lon;timestamp;temperature;humidity
29255;DHT22;16277;48.890;2.306;2023-04-25T00:12:03;13.70;99.90
29255;DHT22;16277;48.890;2.306;2023-04-25T00:27:07;14.00;99.90
29255;DHT22;16277;48.890;2.306;2023-04-25T00:42:12;13.50;99.90
29255;DHT22;16277;48.890;2.306;2023-04-25T00:57:16;13.10;99.90
29255;DHT22;16277;48.890;2.306;2023-04-25T01:12:21;13.20;99.90
29255;DHT22;16277;48.890;2.306;2023-04-25T01:27:25;13.40;99.90
29255;DHT22;16277;48.890;2.306;2023-04-25T01:42:31;13.30;99.90
29255;DHT22;16277;48.890;2.306;2023-04-25T01:57:36;12.90;99.90
29255;DHT22;16277;48.890;2.306;2023-04-25T02:12:41;13.30;99.90
29255;DHT22;16277;48.890;2.306;2023-04-25T02:27:56;12.90;99.90
29255;DHT22;16277;48.890;2.306;2023-04-25T02:43:00;12.80;99.90
29255;DHT22;16277;48.890;2.306;2023-04-25T02:58:05;13.40;99.90
29255;DHT22;16277;48.890;2.306;2023-04-25T03:13:19;12.50;99.90
29255;DHT22;16277;48.890;2.306;2023-04-25T03:28:24;12.40;99.90
29255;DHT22;16277;48.890;2.306;2023-04-25T03:43:30;12.40;99.90
29255;DHT22;16277;48.890;2.306;2023-04-25T03:58:40;12.60;99.90
29255;DHT22;16277;48.890;2.306;2023-04-25T04:13:45;12.70;99.90
29255;DHT22;16277;48.890;2.306;2023-04-25T04:28:51;12.50;99.90
29255;DHT22;16277;48.890;2.306;2023-04-25T04:44:14;12.00;99.90
29255;DHT22;16277;48.890;2.306;2023-04-25T04:59:40;12.30;99.90
29255;DHT22;16277;48.890;2.306;2023-04-25T05:14:58;12.80;99.90
29255;DHT22;16277;48.890;2.306;2023-04-25T05:30:22;13.20;99.90
29255;DHT22;16277;48.890;2.306;2023-04-25T05:45:39;12.90;99.90
29255;DHT22;16277;48.890;2.306;2023-04-25T06:01:03;12.80;99.90
29255;DHT22;16277;48.890;2.306;2023-04-25T06:16:08;12.40;99.90
29255;DHT22;16277;48.890;2.306;2023-04-25T06:31:14;13.20;99.90
29255;DHT22;16277;48.890;2.306;2023-04-25T06:46:20;13.30;99.90
29255;DHT22;16277;48.890;2.306;2023-04-25T07:01:25;12.80;99.90
29255;DHT22;16277;48.890;2.306;2023-04-25T07:16:33;13.30;99.90
29255;DHT22;16277;48.890;2.306;2023-04-25T07:31:38;13.30;99.90
29255;DHT22;16277;48.890;2.306;2023-04-25T07:46:43;13.10;99.90
29255;DHT22;16277;48.890;2.306;2023-04-25T08:01:48;13.80;99.90
29255;DHT22;16277;48.890;2.306;2023-04-25T08:16:54;13.90;99.90
29255;DHT22;16277;48.890;2.306;2023-04-25T08:32:01;14.40;99.90
29255;DHT22;16277;48.890;2.306;2023-04-25T08:47:06;14.30;99.90
29255;DHT22;16277;48.890;2.306;2023-04-25T09:02:18;14.60;99.90
29255;DHT22;16277;48.890;2.306;2023-04-25T09:17:26;14.40;99.90
29255;DHT22;16277;48.890;2.306;2023-04-25T09:32:33;14.50;99.90
29255;DHT22;16277;48.890;2.306;2023-04-25T09:47:38;14.40;99.90
29255;DHT22;16277;48.890;2.306;2023-04-25T10:02:47;14.60;99.90
29255;DHT22;16277;48.890;2.306;2023-04-25T10:18:12;15.20;99.90
29255;DHT22;16277;48.890;2.306;2023-04-25T10:33:18;14.30;99.90
29255;DHT22;16277;48.890;2.306;2023-04-25T10:48:29;14.30;99.90
29255;DHT22;16277;48.890;2.306;2023-04-25T11:03:38;15.30;97.80
29255;DHT22;16277;48.890;2.306;2023-04-25T11:18:44;15.10;97.10
29255;DHT22;16277;48.890;2.306;2023-04-25T11:33:48;15.40;96.00
29255;DHT22;16277;48.890;2.306;2023-04-25T11:48:56;15.50;96.00
29255;DHT22;16277;48.890;2.306;2023-04-25T12:04:13;15.90;94.40
29255;DHT22;16277;48.890;2.306;2023-04-25T12:19:19;15.60;95.40
29255;DHT22;16277;48.890;2.306;2023-04-25T12:34:24;15.60;95.50
29255;DHT22;16277;48.890;2.306;2023-04-25T12:49:29;16.30;94.60
29255;DHT22;16277;48.890;2.306;2023-04-25T13:04:33;16.50;93.20
29255;DHT22;16277;48.890;2.306;2023-04-25T13:19:38;17.00;92.70
29255;DHT22;16277;48.890;2.306;2023-04-25T13:34:42;16.50;92.90
29255;DHT22;16277;48.890;2.306;2023-04-25T13:49:46;16.70;92.90
29255;DHT22;16277;48.890;2.306;2023-04-25T14:04:51;16.20;92.20
29255;DHT22;16277;48.890;2.306;2023-04-25T14:19:55;15.90;91.60
29255;DHT22;16277;48.890;2.306;2023-04-25T14:35:00;15.60;89.60
29255;DHT22;16277;48.890;2.306;2023-04-25T14:50:06;16.30;89.20
29255;DHT22;16277;48.890;2.306;2023-04-25T15:05:12;16.20;87.80
29255;DHT22;16277;48.890;2.306;2023-04-25T15:20:17;16.90;82.70
29255;DHT22;16277;48.890;2.306;2023-04-25T15:35:22;16.70;87.20
29255;DHT22;16277;48.890;2.306;2023-04-25T15:50:27;16.10;88.30
29255;DHT22;16277;48.890;2.306;2023-04-25T16:05:33;17.10;86.30
29255;DHT22;16277;48.890;2.306;2023-04-25T16:20:38;16.40;87.90
29255;DHT22;16277;48.890;2.306;2023-04-25T16:35:43;16.60;87.00
29255;DHT22;16277;48.890;2.306;2023-04-25T16:50:48;16.10;86.60
29255;DHT22;16277;48.890;2.306;2023-04-25T17:05:54;15.60;83.70
29255;DHT22;16277;48.890;2.306;2023-04-25T17:21:00;16.00;83.30
29255;DHT22;16277;48.890;2.306;2023-04-25T17:36:06;16.50;82.40
29255;DHT22;16277;48.890;2.306;2023-04-25T17:51:11;16.90;80.70
29255;DHT22;16277;48.890;2.306;2023-04-25T18:06:17;16.70;80.10
29255;DHT22;16277;48.890;2.306;2023-04-25T18:21:22;16.50;82.90
29255;DHT22;16277;48.890;2.306;2023-04-25T18:36:27;16.80;83.90
29255;DHT22;16277;48.890;2.306;2023-04-25T18:51:34;16.40;85.00
29255;DHT22;16277;48.890;2.306;2023-04-25T19:06:39;16.20;85.20
29255;DHT22;16277;48.890;2.306;2023-04-25T19:21:44;15.90;85.60
29255;DHT22;16277;48.890;2.306;2023-04-25T19:36:49;15.90;87.20
29255;DHT22;16277;48.890;2.306;2023-04-25T19:51:56;15.70;88.70
29255;DHT22;16277;48.890;2.306;2023-04-25T20:07:02;15.70;90.10
29255;DHT22;16277;48.890;2.306;2023-04-25T20:22:06;15.60;90.30
29255;DHT22;16277;48.890;2.306;2023-04-25T20:37:11;15.60;89.40
29255;DHT22;16277;48.890;2.306;2023-04-25T20:52:18;15.40;90.00
29255;DHT22;16277;48.890;2.306;2023-04-25T21:07:22;15.40;90.50
29255;DHT22;16277;48.890;2.306;2023-04-25T21:22:27;15.30;90.70
29255;DHT22;16277;48.890;2.306;2023-04-25T21:37:31;15.30;90.80
29255;DHT22;16277;48.890;2.306;2023-04-25T21:52:36;15.20;90.90
29255;DHT22;16277;48.890;2.306;2023-04-25T22:07:40;15.20;91.30
29255;DHT22;16277;48.890;2.306;2023-04-25T22:22:45;15.20;91.30
29255;DHT22;16277;48.890;2.306;2023-04-25T22:37:49;15.10;91.70
29255;DHT22;16277;48.890;2.306;2023-04-25T22:52:53;15.10;92.20
29255;DHT22;16277;48.890;2.306;2023-04-25T23:07:58;15.00;92.50
29255;DHT22;16277;48.890;2.306;2023-04-25T23:23:02;14.80;91.90
29255;DHT22;16277;48.890;2.306;2023-04-25T23:38:07;14.80;91.60
29255;DHT22;16277;48.890;2.306;2023-04-25T23:53:11;14.70;91.10
